Time;durP1;ratioP1;P1;durP2;ratioP2;P2;SDS_P1;SDS_P2;PMS_P1;PMS_P2;Temp;Humidity;BMP_temperature;BMP_pressure;BME280_temperature;BME280_humidity;BME280_pressure;Samples;Min_cycle;Max_cycle;Signal;HPM_P1;HPM_P2
2022/06/05 00:01:41;;;;;;;1.65;0.80;;;14.00;99.90;;;;;;4873936;29;20044;-67
2022/06/05 00:04:32;;;;;;;0.25;0.25;;;14.00;99.90;;;;;;4872696;29;20057;-67
2022/06/05 00:07:36;;;;;;;0.10;0.10;;;14.00;99.90;;;;;;4857998;29;20069;-67
2022/06/05 00:10:21;;;;;;;0.37;0.37;;;14.00;99.90;;;;;;4873694;29;20206;-67
2022/06/05 00:12:57;;;;;;;0.10;0.10;;;13.90;99.90;;;;;;4868825;29;20548;-68
2022/06/05 00:15:23;;;;;;;0.10;0.10;;;14.00;99.90;;;;;;4868340;29;20053;-68
2022/06/05 00:17:49;;;;;;;0.95;0.65;;;14.00;99.90;;;;;;4871359;29;20044;-68
2022/06/05 00:20:15;;;;;;;1.27;0.68;;;14.00;99.90;;;;;;4866724;29;20060;-68
2022/06/05 00:22:41;;;;;;;0.40;0.40;;;14.00;99.90;;;;;;4866254;29;20075;-68
2022/06/05 00:25:09;;;;;;;9.18;0.65;;;14.10;99.90;;;;;;4864349;29;20630;-68
2022/06/05 00:27:49;;;;;;;0.10;0.10;;;14.00;99.90;;;;;;4867372;29;20057;-68
2022/06/05 00:30:38;;;;;;;2.28;0.75;;;13.90;99.90;;;;;;4872133;29;20080;-67
2022/06/05 00:33:17;;;;;;;0.17;0.17;;;13.90;99.90;;;;;;4867853;29;20135;-67
2022/06/05 00:35:52;;;;;;;0.22;0.22;;;14.00;99.90;;;;;;4861972;29;20562;-67
2022/06/05 00:38:29;;;;;;;0.30;0.30;;;13.90;99.90;;;;;;4866848;29;20075;-67
2022/06/05 00:41:33;;;;;;;0.30;0.30;;;14.10;99.90;;;;;;4870902;29;20049;-67
2022/06/05 00:44:01;;;;;;;0.10;0.10;;;14.10;99.90;;;;;;4869593;29;20057;-68
2022/06/05 00:46:28;;;;;;;4.38;1.05;;;14.00;99.90;;;;;;4864231;29;20124;-68
2022/06/05 00:48:54;;;;;;;0.10;0.10;;;14.00;99.90;;;;;;4872011;29;20128;-67
2022/06/05 00:51:20;;;;;;;0.45;0.45;;;14.10;99.90;;;;;;4868770;29;20041;-67
2022/06/05 00:53:46;;;;;;;0.98;0.45;;;14.10;99.90;;;;;;4870905;29;20057;-68
2022/06/05 00:56:12;;;;;;;0.40;0.40;;;14.20;99.90;;;;;;4864465;29;20041;-67
2022/06/05 00:58:39;;;;;;;0.10;0.10;;;14.10;99.90;;;;;;4864696;29;20053;-68
2022/06/05 01:01:06;;;;;;;0.10;0.10;;;14.30;99.90;;;;;;4869523;29;20052;-68
2022/06/05 01:03:32;;;;;;;0.00;0.00;;;14.10;99.90;;;;;;4872724;29;20055;-67
2022/06/05 01:05:57;;;;;;;0.60;0.60;;;13.90;99.90;;;;;;4859331;29;20053;-68
2022/06/05 01:08:23;;;;;;;0.20;0.20;;;14.10;99.90;;;;;;4862794;29;20150;-67
2022/06/05 01:10:48;;;;;;;2.60;1.45;;;14.10;99.90;;;;;;4872730;29;20060;-67
2022/06/05 01:13:57;;;;;;;0.45;0.40;;;14.10;99.90;;;;;;4861130;29;20052;-67
2022/06/05 01:16:29;;;;;;;0.20;0.20;;;14.10;99.90;;;;;;4857357;29;20070;-67
2022/06/05 01:19:36;;;;;;;0.40;0.40;;;14.10;99.90;;;;;;4874721;29;20052;-67
2022/06/05 01:22:16;;;;;;;0.10;0.10;;;14.20;99.90;;;;;;4848624;29;20101;-67
2022/06/05 01:24:57;;;;;;;1.63;1.45;;;14.20;99.90;;;;;;4861158;29;20061;-67
2022/06/05 01:27:27;;;;;;;0.38;0.30;;;14.10;99.90;;;;;;4862150;29;20532;-67
2022/06/05 01:30:11;;;;;;;0.75;0.75;;;14.10;99.90;;;;;;4862500;29;20065;-67
2022/06/05 01:32:59;;;;;;;0.10;0.10;;;14.10;99.90;;;;;;4867908;29;20037;-67
2022/06/05 01:35:49;;;;;;;0.13;0.13;;;14.10;99.90;;;;;;4861704;29;20148;-67
2022/06/05 01:38:29;;;;;;;1.08;0.80;;;14.20;99.90;;;;;;4869526;29;20051;-67
2022/06/05 01:41:00;;;;;;;0.20;0.20;;;14.10;99.90;;;;;;4859286;29;20049;-68
2022/06/05 01:43:32;;;;;;;4.65;1.05;;;14.10;99.90;;;;;;4870908;29;20045;-67
2022/06/05 01:46:10;;;;;;;0.10;0.10;;;14.10;99.90;;;;;;4858480;29;20402;-68
2022/06/05 01:48:54;;;;;;;0.03;0.03;;;14.10;99.90;;;;;;4871530;29;20060;-68
2022/06/05 01:51:28;;;;;;;0.00;0.00;;;14.00;99.90;;;;;;4863459;29;20045;-68
2022/06/05 01:53:54;;;;;;;0.63;0.52;;;14.00;99.90;;;;;;4864836;29;20045;-68
2022/06/05 01:56:30;;;;;;;0.13;0.13;;;14.00;99.90;;;;;;4865422;29;20092;-68
2022/06/05 01:59:18;;;;;;;0.10;0.10;;;14.00;99.90;;;;;;4874120;29;20049;-67
2022/06/05 02:01:49;;;;;;;0.32;0.32;;;13.90;99.90;;;;;;4853138;29;20049;-67
2022/06/05 02:04:23;;;;;;;0.10;0.10;;;14.00;99.90;;;;;;4862303;29;20084;-67
2022/06/05 02:06:58;;;;;;;0.38;0.35;;;13.90;99.90;;;;;;4860425;29;20132;-68
2022/06/05 02:09:37;;;;;;;1.52;0.82;;;13.80;99.90;;;;;;4868139;29;20045;-67
2022/06/05 02:12:05;;;;;;;1.67;1.15;;;13.90;99.90;;;;;;4871679;29;20040;-67
2022/06/05 02:14:31;;;;;;;0.20;0.20;;;14.00;99.90;;;;;;4869717;29;20256;-68
2022/06/05 02:16:58;;;;;;;0.45;0.45;;;14.00;99.90;;;;;;4873937;29;20056;-68
2022/06/05 02:19:24;;;;;;;0.50;0.50;;;14.00;99.90;;;;;;4872489;29;20112;-68
2022/06/05 02:21:54;;;;;;;3.40;0.80;;;14.00;99.90;;;;;;4866647;29;20045;-68
2022/06/05 02:24:20;;;;;;;0.93;0.63;;;14.00;99.90;;;;;;4870798;29;20409;-68
2022/06/05 02:26:46;;;;;;;0.10;0.10;;;14.00;99.90;;;;;;4869455;29;20053;-68
2022/06/05 02:29:20;;;;;;;0.57;0.40;;;14.00;99.90;;;;;;4872870;29;20624;-68
2022/06/05 02:32:17;;;;;;;0.10;0.10;;;13.90;99.90;;;;;;4857889;29;20056;-67
2022/06/05 02:35:13;;;;;;;0.20;0.20;;;14.00;99.90;;;;;;4866810;29;20045;-68
2022/06/05 02:37:46;;;;;;;1.27;0.50;;;14.00;99.90;;;;;;4868573;29;20294;-68
2022/06/05 02:40:23;;;;;;;;;;;14.10;99.90;;;;;;4870261;29;20056;-67
2022/06/05 02:43:03;;;;;;;0.17;0.17;;;14.10;99.90;;;;;;4877106;29;19927;-67
2022/06/05 02:45:51;;;;;;;0.17;0.17;;;14.00;99.90;;;;;;4861662;29;20059;-68
2022/06/05 02:48:35;;;;;;;0.32;0.32;;;14.00;99.90;;;;;;4870870;29;20461;-68
2022/06/05 02:51:04;;;;;;;;;;;14.00;99.90;;;;;;4866528;29;20496;-67
2022/06/05 02:53:47;;;;;;;0.28;0.28;;;14.00;99.90;;;;;;4874805;29;20018;-68
2022/06/05 02:56:13;;;;;;;0.10;0.10;;;13.90;99.90;;;;;;4875240;29;20048;-68
2022/06/05 02:58:39;;;;;;;0.30;0.30;;;14.00;99.90;;;;;;4863489;29;20053;-67
2022/06/05 03:03:48;;;;;;;0.50;0.47;;;14.00;99.90;;;;;;4865163;29;20092;-67
2022/06/05 03:06:14;;;;;;;0.43;0.43;;;14.00;99.90;;;;;;4871341;29;20084;-67
2022/06/05 03:08:40;;;;;;;0.32;0.32;;;14.00;99.90;;;;;;4864413;29;20053;-68
2022/06/05 03:11:06;;;;;;;1.45;0.30;;;14.10;99.90;;;;;;4871777;29;20688;-67
2022/06/05 03:13:32;;;;;;;0.10;0.10;;;14.00;99.90;;;;;;4875336;29;20060;-68
2022/06/05 03:15:58;;;;;;;2.63;0.98;;;14.00;99.90;;;;;;4863390;29;20042;-68
2022/06/05 03:18:23;;;;;;;0.88;0.68;;;14.00;99.90;;;;;;4866645;29;20052;-68
2022/06/05 03:20:49;;;;;;;0.88;0.88;;;14.00;99.90;;;;;;4875013;29;20573;-68
2022/06/05 03:23:15;;;;;;;0.10;0.10;;;14.00;99.90;;;;;;4876482;29;20415;-68
2022/06/05 03:25:42;;;;;;;0.10;0.10;;;14.00;99.90;;;;;;4863295;29;20124;-68
2022/06/05 03:28:08;;;;;;;0.30;0.30;;;14.00;99.90;;;;;;4869758;29;20077;-68
2022/06/05 03:30:37;;;;;;;0.10;0.10;;;14.00;99.90;;;;;;4875778;29;20532;-68
2022/06/05 03:33:03;;;;;;;0.10;0.10;;;14.10;99.90;;;;;;4875230;29;20037;-68
2022/06/05 03:35:29;;;;;;;0.20;0.20;;;14.10;99.90;;;;;;4864161;29;20414;-68
2022/06/05 03:37:54;;;;;;;0.00;0.00;;;14.10;99.90;;;;;;4866254;29;20049;-68
2022/06/05 03:40:20;;;;;;;0.20;0.20;;;14.00;99.90;;;;;;4873853;29;20037;-68
2022/06/05 03:42:45;;;;;;;0.10;0.10;;;14.10;99.90;;;;;;4869908;29;20132;-68
2022/06/05 03:45:16;;;;;;;0.10;0.10;;;14.10;99.90;;;;;;4873642;29;20053;-68
2022/06/05 03:47:42;;;;;;;0.10;0.10;;;14.10;99.90;;;;;;4874390;29;20516;-68
2022/06/05 03:50:08;;;;;;;0.20;0.20;;;14.20;99.90;;;;;;4867776;29;20069;-68
2022/06/05 03:52:34;;;;;;;0.00;0.00;;;14.20;99.90;;;;;;4864837;29;20049;-68
2022/06/05 03:55:00;;;;;;;0.10;0.10;;;14.20;99.90;;;;;;4873493;29;20105;-68
2022/06/05 03:57:26;;;;;;;0.10;0.10;;;14.20;99.90;;;;;;4875878;29;20561;-68
2022/06/05 03:59:51;;;;;;;4.97;0.40;;;14.20;99.90;;;;;;4867217;29;20128;-68
2022/06/05 04:02:17;;;;;;;0.52;0.40;;;14.20;99.90;;;;;;4861552;29;20497;-68
2022/06/05 04:04:42;;;;;;;1.58;1.42;;;14.20;99.90;;;;;;4875321;29;20071;-68
2022/06/05 04:07:08;;;;;;;0.10;0.10;;;14.20;99.90;;;;;;4865358;29;20049;-68
2022/06/05 04:09:34;;;;;;;0.35;0.35;;;14.30;99.90;;;;;;4863319;29;20113;-68
2022/06/05 04:11:59;;;;;;;0.17;0.17;;;14.30;99.90;;;;;;4875534;29;20044;-68
2022/06/05 04:14:25;;;;;;;0.20;0.20;;;14.30;99.90;;;;;;4874569;29;20051;-67
2022/06/05 04:16:50;;;;;;;0.25;0.25;;;14.30;99.90;;;;;;4857334;29;20114;-67
2022/06/05 04:19:16;;;;;;;0.10;0.10;;;14.30;99.90;;;;;;4875559;29;20049;-68
2022/06/05 04:21:44;;;;;;;0.65;0.65;;;14.40;99.90;;;;;;4872312;29;20053;-69
2022/06/05 04:24:11;;;;;;;0.20;0.20;;;14.40;99.90;;;;;;4872451;29;20059;-68
2022/06/05 04:26:40;;;;;;;0.25;0.25;;;14.40;99.90;;;;;;4869330;29;20730;-69
2022/06/05 04:29:06;;;;;;;0.20;0.20;;;14.40;99.90;;;;;;4872891;29;20688;-67
2022/06/05 04:31:35;;;;;;;0.32;0.32;;;14.40;99.90;;;;;;4872258;29;20064;-68
2022/06/05 04:34:06;;;;;;;0.25;0.25;;;14.50;99.90;;;;;;4870368;29;20072;-68
2022/06/05 04:36:32;;;;;;;1.65;1.55;;;14.40;99.90;;;;;;4863681;29;20061;-68
2022/06/05 04:38:58;;;;;;;0.90;0.75;;;14.40;99.90;;;;;;4868460;29;20076;-68
2022/06/05 04:41:27;;;;;;;0.20;0.20;;;14.40;99.90;;;;;;4861939;29;20076;-68
2022/06/05 04:43:54;;;;;;;1.27;0.85;;;14.60;99.90;;;;;;4869926;29;20081;-68
2022/06/05 04:46:21;;;;;;;0.10;0.10;;;14.50;99.90;;;;;;4859002;29;20066;-68
2022/06/05 04:48:47;;;;;;;0.38;0.38;;;14.50;99.90;;;;;;4874542;29;20049;-68
2022/06/05 04:51:14;;;;;;;0.10;0.10;;;14.60;99.90;;;;;;4869824;29;20044;-68
2022/06/05 04:53:40;;;;;;;0.20;0.20;;;14.60;99.90;;;;;;4857982;29;20083;-67
2022/06/05 04:56:08;;;;;;;0.00;0.00;;;14.60;99.90;;;;;;4865517;29;20102;-68
2022/06/05 04:58:34;;;;;;;0.57;0.57;;;14.60;99.90;;;;;;4860499;29;20053;-69
2022/06/05 05:01:00;;;;;;;0.08;0.08;;;14.60;99.90;;;;;;4871602;29;20121;-68
2022/06/05 05:03:26;;;;;;;0.20;0.20;;;14.70;99.90;;;;;;4866071;29;20055;-68
2022/06/05 05:05:52;;;;;;;0.30;0.30;;;14.70;99.90;;;;;;4861583;29;20073;-68
2022/06/05 05:08:19;;;;;;;0.43;0.40;;;14.70;99.90;;;;;;4865719;29;20101;-68
2022/06/05 05:10:45;;;;;;;2.83;1.27;;;14.80;99.90;;;;;;4866792;29;20048;-68
2022/06/05 05:13:11;;;;;;;0.03;0.03;;;14.80;99.90;;;;;;4873512;29;20124;-68
2022/06/05 05:15:36;;;;;;;0.65;0.65;;;14.80;99.90;;;;;;4858578;29;20046;-68
2022/06/05 05:18:02;;;;;;;0.20;0.20;;;14.90;99.90;;;;;;4874121;29;20469;-68
2022/06/05 05:20:28;;;;;;;0.30;0.30;;;15.00;99.90;;;;;;4869841;29;20044;-68
2022/06/05 05:22:53;;;;;;;0.00;0.00;;;15.00;99.90;;;;;;4857243;29;20049;-67
2022/06/05 05:25:19;;;;;;;0.03;0.03;;;15.10;99.90;;;;;;4864822;29;20045;-67
2022/06/05 05:27:45;;;;;;;0.43;0.43;;;15.10;99.90;;;;;;4872351;29;20615;-68
2022/06/05 05:30:11;;;;;;;0.10;0.10;;;15.20;99.90;;;;;;4868122;29;20466;-67
2022/06/05 05:32:38;;;;;;;1.55;0.43;;;15.30;99.90;;;;;;4855656;29;20056;-68
2022/06/05 05:35:05;;;;;;;0.05;0.05;;;15.30;99.90;;;;;;4866624;29;20053;-68
2022/06/05 05:37:30;;;;;;;0.55;0.55;;;15.30;99.90;;;;;;4867370;29;20076;-68
2022/06/05 05:42:40;;;;;;;0.13;0.13;;;15.40;99.90;;;;;;4873793;29;20093;-68
2022/06/05 05:45:06;;;;;;;0.00;0.00;;;15.50;99.90;;;;;;4865977;29;20065;-68
2022/06/05 05:47:33;;;;;;;0.28;0.28;;;15.50;99.90;;;;;;4866749;29;20105;-68
2022/06/05 05:50:02;;;;;;;0.00;0.00;;;15.50;99.90;;;;;;4863978;29;20067;-68
2022/06/05 05:52:29;;;;;;;5.68;1.15;;;15.50;99.90;;;;;;4869075;29;20179;-68
2022/06/05 05:54:54;;;;;;;1.00;0.63;;;15.60;99.90;;;;;;4869576;29;20056;-67
2022/06/05 05:57:20;;;;;;;0.80;0.43;;;15.50;99.90;;;;;;4857574;29;20054;-68
2022/06/05 05:59:46;;;;;;;0.20;0.20;;;15.60;99.90;;;;;;4871288;29;20084;-68
2022/06/05 06:02:18;;;;;;;0.45;0.30;;;15.60;99.90;;;;;;4879999;29;20549;-68
2022/06/05 06:04:44;;;;;;;0.20;0.20;;;15.60;99.90;;;;;;4867383;29;20056;-68
2022/06/05 06:07:11;;;;;;;0.10;0.10;;;15.70;99.90;;;;;;4873121;29;20049;-68
2022/06/05 06:09:38;;;;;;;5.85;0.65;;;15.70;99.90;;;;;;4873639;29;20421;-68
2022/06/05 06:12:04;;;;;;;0.13;0.13;;;15.80;99.90;;;;;;4870296;29;20050;-68
2022/06/05 06:14:30;;;;;;;0.45;0.45;;;15.80;99.90;;;;;;4870392;29;20053;-67
2022/06/05 06:16:55;;;;;;;0.00;0.00;;;15.90;99.90;;;;;;4865698;29;20053;-67
2022/06/05 06:19:21;;;;;;;0.20;0.20;;;15.90;99.90;;;;;;4868743;29;20127;-68
2022/06/05 06:21:47;;;;;;;0.00;0.00;;;15.90;99.90;;;;;;4870474;29;20581;-69
2022/06/05 06:24:13;;;;;;;0.10;0.10;;;16.00;99.90;;;;;;4869576;29;20057;-69
2022/06/05 06:26:40;;;;;;;0.10;0.10;;;16.10;99.90;;;;;;4867470;29;20485;-68
2022/06/05 06:29:06;;;;;;;2.97;0.63;;;16.10;99.90;;;;;;4864521;29;20636;-68
2022/06/05 06:31:32;;;;;;;0.15;0.15;;;16.10;99.90;;;;;;4867946;29;20411;-68
2022/06/05 06:33:58;;;;;;;0.47;0.47;;;16.10;99.90;;;;;;4865680;29;20056;-68
2022/06/05 06:36:23;;;;;;;0.10;0.10;;;16.20;99.90;;;;;;4873144;29;20052;-68
2022/06/05 06:38:49;;;;;;;0.30;0.30;;;16.20;99.90;;;;;;4874284;29;20139;-68
2022/06/05 06:41:17;;;;;;;1.27;1.27;;;16.20;99.90;;;;;;4867772;29;20080;-68
2022/06/05 06:43:44;;;;;;;2.45;0.73;;;16.30;99.90;;;;;;4868544;29;20385;-69
2022/06/05 06:46:11;;;;;;;0.20;0.20;;;16.30;99.90;;;;;;4875250;29;20560;-69
2022/06/05 06:48:37;;;;;;;0.10;0.10;;;16.30;99.90;;;;;;4871680;29;20041;-68
2022/06/05 06:51:05;;;;;;;0.22;0.20;;;16.30;99.90;;;;;;4873784;29;20065;-69
2022/06/05 06:53:31;;;;;;;0.10;0.10;;;16.40;99.90;;;;;;4874508;29;20037;-69
2022/06/05 06:55:57;;;;;;;0.10;0.10;;;16.40;99.90;;;;;;4866299;29;20049;-68
2022/06/05 06:58:24;;;;;;;0.28;0.28;;;16.40;99.90;;;;;;4862725;29;20069;-68
2022/06/05 07:00:49;;;;;;;0.20;0.20;;;16.50;99.90;;;;;;4866143;29;20155;-68
2022/06/05 07:03:15;;;;;;;0.10;0.10;;;16.50;99.90;;;;;;4863912;29;20063;-68
2022/06/05 07:05:41;;;;;;;0.70;0.70;;;16.60;99.90;;;;;;4869398;29;20390;-68
2022/06/05 07:08:09;;;;;;;0.10;0.10;;;16.70;99.90;;;;;;4862504;29;20052;-68
2022/06/05 07:10:36;;;;;;;0.20;0.20;;;16.70;99.90;;;;;;4867226;29;20084;-68
2022/06/05 07:13:02;;;;;;;0.32;0.30;;;16.80;99.90;;;;;;4866329;29;20541;-68
2022/06/05 07:15:33;;;;;;;0.52;0.52;;;16.90;99.90;;;;;;4871550;29;20088;-68
2022/06/05 07:18:01;;;;;;;0.03;0.03;;;16.90;99.90;;;;;;4867461;29;20065;-68
2022/06/05 07:20:27;;;;;;;0.15;0.15;;;17.00;99.90;;;;;;4862787;29;20056;-68
2022/06/05 07:22:52;;;;;;;0.20;0.20;;;17.00;99.90;;;;;;4876253;29;20052;-68
2022/06/05 07:25:18;;;;;;;0.22;0.22;;;17.00;99.90;;;;;;4862725;29;20390;-68
2022/06/05 07:27:43;;;;;;;0.40;0.40;;;17.00;99.90;;;;;;4873798;29;20107;-69
2022/06/05 07:30:12;;;;;;;0.40;0.40;;;17.00;99.90;;;;;;4876551;29;20049;-68
2022/06/05 07:32:37;;;;;;;0.15;0.15;;;17.10;99.90;;;;;;4871009;29;20054;-68
2022/06/05 07:35:04;;;;;;;0.10;0.10;;;17.20;99.90;;;;;;4863399;29;20056;-69
2022/06/05 07:37:29;;;;;;;0.45;0.30;;;17.30;99.90;;;;;;4876175;29;20056;-68
2022/06/05 07:39:55;;;;;;;0.90;0.73;;;17.30;99.90;;;;;;4873529;29;20045;-68
2022/06/05 07:42:20;;;;;;;0.13;0.13;;;17.40;99.90;;;;;;4872662;29;20056;-68
2022/06/05 07:44:46;;;;;;;0.05;0.05;;;17.50;99.90;;;;;;4867772;29;20132;-68
2022/06/05 07:47:11;;;;;;;0.10;0.10;;;17.60;99.90;;;;;;4868080;29;20056;-68
2022/06/05 07:49:39;;;;;;;0.03;0.03;;;17.60;99.90;;;;;;4872008;29;20591;-68
2022/06/05 07:54:49;;;;;;;0.85;0.40;;;17.80;99.90;;;;;;4869206;29;20053;-69
2022/06/05 07:57:19;;;;;;;0.25;0.25;;;17.80;99.90;;;;;;4874572;29;20045;-68
2022/06/05 07:59:47;;;;;;;0.10;0.10;;;18.00;99.90;;;;;;4872846;29;20671;-69
2022/06/05 08:02:20;;;;;;;0.40;0.40;;;18.00;99.90;;;;;;4874996;29;20124;-69
2022/06/05 08:04:48;;;;;;;0.20;0.20;;;18.10;99.90;;;;;;4874256;29;20509;-69
2022/06/05 08:07:17;;;;;;;0.28;0.28;;;18.20;99.90;;;;;;4856290;29;20046;-69
2022/06/05 08:09:43;;;;;;;0.00;0.00;;;18.20;99.90;;;;;;4855771;29;20053;-69
2022/06/05 08:12:10;;;;;;;0.08;0.08;;;18.30;99.90;;;;;;4861357;29;20056;-69
2022/06/05 08:14:38;;;;;;;0.38;0.38;;;18.30;99.90;;;;;;4864563;29;20073;-69
2022/06/05 08:17:07;;;;;;;0.20;0.10;;;18.30;99.90;;;;;;4865299;29;20101;-69
2022/06/05 08:19:33;;;;;;;0.38;0.38;;;18.40;99.90;;;;;;4864895;29;20076;-69
2022/06/05 08:21:59;;;;;;;0.22;0.22;;;18.50;99.90;;;;;;4856472;29;20490;-69
2022/06/05 08:24:25;;;;;;;0.20;0.20;;;18.60;99.90;;;;;;4861983;29;20062;-69
2022/06/05 08:26:51;;;;;;;0.20;0.20;;;18.60;99.90;;;;;;4864916;29;20097;-69
2022/06/05 08:29:18;;;;;;;0.22;0.22;;;18.70;99.90;;;;;;4856234;29;20137;-69
2022/06/05 08:31:44;;;;;;;0.10;0.10;;;18.60;99.90;;;;;;4866318;29;20052;-69
2022/06/05 08:34:10;;;;;;;0.63;0.50;;;18.70;99.90;;;;;;4863480;29;20049;-69
2022/06/05 08:36:36;;;;;;;0.35;0.35;;;18.70;99.90;;;;;;4856884;29;20042;-69
2022/06/05 08:42:16;;;;;;;0.30;0.28;;;18.70;99.90;;;;;;4861669;29;20056;-69
2022/06/05 08:44:57;;;;;;;0.20;0.20;;;18.70;99.90;;;;;;4856963;29;20063;-69
2022/06/05 08:47:29;;;;;;;0.35;0.32;;;18.70;99.90;;;;;;4857231;29;20053;-70
2022/06/05 08:50:01;;;;;;;0.43;0.22;;;18.80;99.90;;;;;;4871362;29;20041;-69
2022/06/05 08:52:45;;;;;;;1.65;0.85;;;18.90;99.90;;;;;;4857382;29;20106;-69
2022/06/05 08:55:23;;;;;;;0.22;0.22;;;18.90;99.90;;;;;;4855911;29;20157;-69
2022/06/05 08:58:24;;;;;;;0.10;0.10;;;19.00;99.90;;;;;;4855968;29;20057;-69
2022/06/05 09:00:55;;;;;;;0.22;0.22;;;19.10;99.90;;;;;;4855982;29;20084;-68
2022/06/05 09:03:24;;;;;;;0.20;0.20;;;19.10;99.90;;;;;;4860134;29;20053;-69
2022/06/05 09:05:56;;;;;;;0.20;0.20;;;19.20;99.90;;;;;;4862391;29;20057;-68
2022/06/05 09:08:27;;;;;;;0.25;0.25;;;19.30;99.90;;;;;;4874429;29;20041;-68
2022/06/05 09:10:58;;;;;;;0.55;0.55;;;19.40;99.90;;;;;;4864490;29;20060;-67
2022/06/05 09:13:23;;;;;;;0.00;0.00;;;19.50;99.90;;;;;;4857145;29;20041;-68
2022/06/05 09:15:59;;;;;;;0.10;0.10;;;19.50;99.90;;;;;;4855193;29;20053;-69
2022/06/05 09:18:31;;;;;;;0.50;0.32;;;19.60;99.90;;;;;;4871759;29;20448;-68
2022/06/05 09:21:01;;;;;;;0.10;0.10;;;19.70;99.90;;;;;;4860480;29;20056;-69
2022/06/05 09:24:06;;;;;;;0.00;0.00;;;19.80;99.90;;;;;;4870900;29;20098;-68
2022/06/05 09:26:48;;;;;;;0.10;0.10;;;19.90;99.90;;;;;;4856798;29;20049;-68
2022/06/05 09:29:28;;;;;;;0.63;0.60;;;19.90;99.90;;;;;;4873055;29;20113;-68
2022/06/05 09:32:35;;;;;;;1.27;0.52;;;19.90;99.90;;;;;;4858912;29;20045;-68
2022/06/05 09:35:10;;;;;;;0.10;0.10;;;20.00;99.90;;;;;;4858610;29;20045;-68
2022/06/05 09:37:42;;;;;;;0.30;0.30;;;20.10;99.90;;;;;;4865235;29;20041;-69
2022/06/05 09:40:14;;;;;;;0.47;0.47;;;20.20;99.90;;;;;;4861926;29;20068;-68
2022/06/05 09:42:53;;;;;;;0.35;0.35;;;20.40;99.90;;;;;;4865034;29;20058;-68
2022/06/05 09:45:29;;;;;;;0.03;0.03;;;20.50;99.90;;;;;;4857639;29;20049;-69
2022/06/05 09:48:01;;;;;;;0.93;0.52;;;20.50;99.90;;;;;;4869058;29;20413;-68
2022/06/05 09:50:29;;;;;;;0.05;0.05;;;20.50;99.90;;;;;;4876484;29;20457;-68
2022/06/05 09:52:55;;;;;;;0.60;0.30;;;20.40;99.90;;;;;;4863340;29;20106;-68
2022/06/05 09:55:21;;;;;;;0.68;0.65;;;20.40;99.90;;;;;;4859393;29;20094;-68
2022/06/05 09:58:31;;;;;;;0.75;0.75;;;20.40;99.90;;;;;;4866480;29;20516;-68
2022/06/05 10:01:00;;;;;;;1.65;0.88;;;20.30;99.90;;;;;;4866877;29;20064;-69
2022/06/05 10:03:32;;;;;;;0.10;0.10;;;20.30;99.90;;;;;;4867114;29;20055;-69
2022/06/05 10:06:21;;;;;;;0.28;0.28;;;20.20;99.90;;;;;;4870280;29;20072;-68
2022/06/05 10:08:51;;;;;;;0.05;0.05;;;20.20;99.90;;;;;;4859715;29;20049;-68
2022/06/05 10:11:39;;;;;;;0.30;0.20;;;20.20;99.90;;;;;;4859536;29;20049;-68
2022/06/05 10:14:35;;;;;;;0.20;0.20;;;20.20;99.90;;;;;;4865352;29;20049;-68
2022/06/05 10:17:31;;;;;;;0.10;0.10;;;20.20;99.90;;;;;;4874631;29;20109;-69
2022/06/05 10:20:12;;;;;;;0.50;0.32;;;20.20;99.90;;;;;;4864547;29;20084;-68
2022/06/05 10:22:49;;;;;;;0.30;0.30;;;20.20;99.90;;;;;;4864130;29;20132;-69
2022/06/05 10:25:47;;;;;;;0.28;0.28;;;20.20;99.90;;;;;;4863955;29;20497;-68
2022/06/05 10:28:20;;;;;;;0.38;0.38;;;20.20;99.90;;;;;;4863456;29;20057;-69
2022/06/05 10:31:08;;;;;;;0.38;0.20;;;20.20;99.90;;;;;;4867646;29;20144;-68
2022/06/05 10:33:38;;;;;;;0.25;0.25;;;20.20;99.90;;;;;;4876318;29;20065;-68
2022/06/05 10:36:17;;;;;;;0.10;0.10;;;20.20;99.90;;;;;;4874408;29;20041;-68
2022/06/05 10:39:07;;;;;;;0.03;0.03;;;20.20;99.90;;;;;;4863419;29;20037;-68
2022/06/05 10:41:44;;;;;;;0.00;0.00;;;20.20;99.90;;;;;;4875375;29;20057;-68
2022/06/05 10:44:17;;;;;;;0.10;0.10;;;20.30;99.90;;;;;;4876020;29;20437;-68
2022/06/05 10:47:12;;;;;;;0.10;0.10;;;20.30;99.90;;;;;;4861303;29;20042;-68
2022/06/05 10:50:07;;;;;;;0.38;0.38;;;20.30;99.90;;;;;;4842397;29;20137;-68
2022/06/05 10:52:50;;;;;;;0.38;0.38;;;20.40;99.90;;;;;;4861242;29;20060;-68
2022/06/05 10:55:18;;;;;;;1.85;0.32;;;20.50;99.90;;;;;;4866896;29;20076;-69
2022/06/05 10:58:04;;;;;;;0.30;0.30;;;20.50;99.90;;;;;;4859953;29;20512;-68
2022/06/05 11:00:38;;;;;;;0.40;0.20;;;20.60;99.90;;;;;;4857073;29;20049;-68
2022/06/05 11:03:25;;;;;;;0.22;0.20;;;20.60;99.90;;;;;;4872320;29;20048;-68
2022/06/05 11:06:18;;;;;;;0.28;0.28;;;20.60;99.90;;;;;;4863144;29;20052;-69
2022/06/05 11:08:55;;;;;;;;;;;20.60;99.90;;;;;;4866303;29;20065;-68
2022/06/05 11:14:29;;;;;;;0.30;0.30;;;20.80;99.90;;;;;;4871522;29;20068;-68
2022/06/05 11:17:15;;;;;;;0.25;0.25;;;20.90;99.90;;;;;;4875693;29;20503;-69
2022/06/05 11:19:51;;;;;;;4.65;1.77;;;20.90;99.90;;;;;;4856147;29;20136;-69
2022/06/05 11:22:19;;;;;;;0.38;0.38;;;21.00;99.90;;;;;;4873085;29;20057;-68
2022/06/05 11:24:57;;;;;;;0.98;0.93;;;21.10;99.90;;;;;;4871021;29;20095;-68
2022/06/05 11:27:36;;;;;;;0.30;0.30;;;21.10;99.90;;;;;;4860208;29;20060;-69
2022/06/05 11:30:11;;;;;;;0.13;0.13;;;21.10;99.90;;;;;;4871966;29;20065;-68
2022/06/05 11:32:51;;;;;;;0.20;0.20;;;21.20;99.90;;;;;;4874597;29;20056;-68
2022/06/05 11:35:28;;;;;;;0.40;0.22;;;21.10;99.90;;;;;;4869154;29;20393;-68
2022/06/05 11:38:09;;;;;;;0.10;0.10;;;21.20;99.90;;;;;;4862790;29;20561;-68
2022/06/05 11:40:45;;;;;;;0.17;0.17;;;21.20;99.90;;;;;;4870623;29;20060;-69
2022/06/05 11:43:30;;;;;;;0.20;0.20;;;21.20;99.90;;;;;;4867138;29;20053;-68
2022/06/05 11:46:08;;;;;;;0.13;0.13;;;21.20;99.90;;;;;;4868105;29;20076;-68
2022/06/05 11:48:37;;;;;;;1.17;1.08;;;21.20;99.90;;;;;;4875642;29;20052;-68
2022/06/05 11:51:11;;;;;;;0.30;0.30;;;21.20;99.90;;;;;;4873481;29;20092;-68
2022/06/05 11:54:01;;;;;;;0.00;0.00;;;21.20;99.90;;;;;;4870642;29;20049;-68
2022/06/05 11:57:03;;;;;;;0.00;0.00;;;21.20;99.90;;;;;;4872279;29;20057;-68
2022/06/05 11:59:41;;;;;;;1.90;0.95;;;21.20;99.90;;;;;;4865102;29;20497;-68
2022/06/05 12:02:31;;;;;;;0.00;0.00;;;21.20;99.90;;;;;;4875548;29;20060;-68
2022/06/05 12:05:25;;;;;;;0.30;0.30;;;21.20;99.90;;;;;;4864366;29;20074;-68
2022/06/05 12:07:58;;;;;;;0.20;0.20;;;21.20;99.90;;;;;;4866330;29;20092;-68
2022/06/05 12:10:28;;;;;;;0.05;0.05;;;21.20;99.90;;;;;;4876111;29;20068;-68
2022/06/05 12:13:09;;;;;;;0.10;0.10;;;21.30;99.90;;;;;;4859724;29;20097;-68
2022/06/05 12:16:00;;;;;;;0.10;0.10;;;21.40;99.90;;;;;;4871490;29;20106;-68
2022/06/05 12:18:36;;;;;;;0.10;0.10;;;21.30;99.90;;;;;;4866403;29;20057;-68
2022/06/05 12:21:09;;;;;;;0.40;0.40;;;21.30;99.90;;;;;;4856441;29;20057;-68
2022/06/05 12:23:41;;;;;;;0.00;0.00;;;21.30;99.90;;;;;;4873778;29;20501;-68
2022/06/05 12:26:33;;;;;;;0.30;0.30;;;21.30;99.90;;;;;;4872349;29;20113;-68
2022/06/05 12:29:19;;;;;;;0.50;0.50;;;21.30;99.90;;;;;;4865818;29;20053;-68
2022/06/05 12:31:54;;;;;;;0.20;0.20;;;21.20;99.90;;;;;;4864303;29;20106;-68
2022/06/05 12:34:29;;;;;;;0.10;0.10;;;21.10;99.90;;;;;;4869659;29;20096;-68
2022/06/05 12:37:20;;;;;;;0.20;0.20;;;21.20;99.90;;;;;;4870081;29;20057;-68
2022/06/05 12:39:52;;;;;;;0.63;0.63;;;21.10;99.90;;;;;;4869065;29;20056;-68
2022/06/05 12:42:25;;;;;;;0.73;0.57;;;21.10;99.90;;;;;;4872506;29;20059;-68
2022/06/05 12:45:00;;;;;;;0.65;0.63;;;21.00;99.90;;;;;;4862428;29;20053;-69
2022/06/05 12:47:54;;;;;;;0.20;0.20;;;21.10;99.90;;;;;;4864869;29;20587;-68
2022/06/05 12:50:36;;;;;;;0.57;0.52;;;21.10;99.90;;;;;;4861448;29;20148;-69
2022/06/05 12:53:18;;;;;;;0.98;0.47;;;21.00;99.90;;;;;;4872443;29;20041;-68
2022/06/05 12:55:54;;;;;;;0.35;0.35;;;21.10;99.90;;;;;;4862386;29;20057;-69
2022/06/05 12:58:44;;;;;;;1.38;1.08;;;21.10;99.90;;;;;;4856443;29;20749;-69
2022/06/05 13:01:26;;;;;;;0.38;0.30;;;21.20;99.90;;;;;;4866626;29;20511;-69
2022/06/05 13:04:13;;;;;;;0.10;0.10;;;21.20;99.90;;;;;;4863896;29;20053;-68
2022/06/05 13:07:04;;;;;;;0.15;0.15;;;21.30;99.90;;;;;;4872279;29;20045;-68
2022/06/05 13:09:52;;;;;;;0.00;0.00;;;21.30;99.90;;;;;;4859665;29;20461;-68
2022/06/05 13:12:32;;;;;;;0.43;0.43;;;21.40;99.90;;;;;;4866080;29;20076;-68
2022/06/05 13:15:24;;;;;;;0.00;0.00;;;21.50;99.90;;;;;;4870358;29;20084;-69
2022/06/05 13:18:03;;;;;;;0.63;0.63;;;21.50;99.90;;;;;;4863870;29;20478;-68
2022/06/05 13:20:38;;;;;;;0.88;0.38;;;21.60;99.90;;;;;;4863859;29;20061;-68
2022/06/05 13:23:08;;;;;;;0.00;0.00;;;21.60;99.90;;;;;;4870724;29;20088;-68
2022/06/05 13:26:11;;;;;;;0.30;0.30;;;21.70;99.90;;;;;;4872316;29;20061;-69
2022/06/05 13:28:40;;;;;;;0.07;0.07;;;21.60;99.90;;;;;;4867791;29;20092;-68
2022/06/05 13:31:28;;;;;;;0.98;0.73;;;21.60;99.90;;;;;;4867549;29;20820;-68
2022/06/05 13:34:02;;;;;;;0.20;0.10;;;21.50;99.90;;;;;;4862302;29;20053;-68